createdAt,value
2017-11-11T00:00:39.062Z,98763
2017-11-11T00:02:45.291Z,98767
2017-11-11T00:04:52.269Z,98759
2017-11-11T00:06:58.430Z,98754
2017-11-11T00:09:08.651Z,98762
2017-11-11T00:11:19.082Z,98764
2017-11-11T00:13:24.835Z,98754
2017-11-11T00:15:31.445Z,98759
2017-11-11T00:17:37.577Z,98787
2017-11-11T00:19:43.929Z,98766
2017-11-11T00:21:50.360Z,98767
2017-11-11T00:23:56.247Z,98768
2017-11-11T00:26:03.018Z,98771
2017-11-11T00:28:08.891Z,98768
2017-11-11T00:30:16.360Z,98773
2017-11-11T00:32:22.031Z,98761
2017-11-11T00:34:27.939Z,98773
2017-11-11T00:36:34.933Z,98771
2017-11-11T00:38:40.990Z,98779
2017-11-11T00:40:51.766Z,98778
2017-11-11T00:43:10.788Z,98775
2017-11-11T00:45:21.750Z,98798
2017-11-11T00:47:27.315Z,98782
2017-11-11T00:49:33.201Z,98782
2017-11-11T00:51:41.658Z,98775
2017-11-11T00:53:49.204Z,98774
2017-11-11T00:55:56.397Z,98778
2017-11-11T00:58:01.834Z,98781
2017-11-11T01:00:08.381Z,98801
2017-11-11T01:02:16.792Z,98783
2017-11-11T01:04:23.214Z,98766
2017-11-11T01:06:28.672Z,98779
2017-11-11T01:08:34.369Z,98780
2017-11-11T01:10:39.946Z,98783
2017-11-11T01:12:46.366Z,98776
2017-11-11T01:14:52.996Z,98782
2017-11-11T01:17:01.443Z,98786
2017-11-11T01:19:08.227Z,98777
2017-11-11T01:21:17.374Z,98786
2017-11-11T01:23:22.945Z,98782
2017-11-11T01:25:28.463Z,98766
2017-11-11T01:27:33.862Z,98760
2017-11-11T01:29:39.505Z,98760
2017-11-11T02:15:06.214Z,98747
2017-11-11T02:17:18.771Z,98753
2017-11-11T02:19:24.500Z,98745
2017-11-11T02:21:30.542Z,98736
2017-11-11T02:26:09.097Z,98748
2017-11-11T02:28:21.519Z,98734
2017-11-11T02:30:37.009Z,98736
2017-11-11T02:32:43.569Z,98732
2017-11-11T02:34:50.788Z,98729
2017-11-11T02:36:58.875Z,98725
2017-11-11T02:39:07.815Z,98727
2017-11-11T02:41:30.920Z,98735
2017-11-11T02:43:36.781Z,98728
2017-11-11T02:45:43.104Z,98732
2017-11-11T02:47:49.787Z,98717
2017-11-11T02:49:57.929Z,98710
2017-11-11T02:52:07.442Z,98716
2017-11-11T02:54:17.330Z,98706
2017-11-11T02:56:23.576Z,98708
2017-11-11T02:58:32.864Z,98705
2017-11-11T03:00:42.602Z,98698
2017-11-11T03:03:06.041Z,98697
2017-11-11T03:05:17.276Z,98698
2017-11-11T03:07:23.331Z,98695
2017-11-11T03:09:28.613Z,98704
2017-11-11T03:12:17.301Z,98702
2017-11-11T03:14:24.278Z,98705
2017-11-11T03:16:30.487Z,98702
2017-11-11T03:18:41.695Z,98704
2017-11-11T03:20:49.172Z,98713
2017-11-11T03:22:58.951Z,98702
2017-11-11T03:27:35.824Z,98717
2017-11-11T03:29:42.990Z,98716
2017-11-11T03:31:50.295Z,98698
2017-11-11T03:33:57.275Z,98700
2017-11-11T03:36:03.609Z,98704
2017-11-11T03:38:10.299Z,98711
2017-11-11T03:40:21.122Z,98694
2017-11-11T03:42:28.057Z,98692
2017-11-11T03:44:33.777Z,98708
2017-11-11T03:46:46.273Z,98701
2017-11-11T03:48:53.405Z,98729
2017-11-11T03:50:59.275Z,98722
2017-11-11T03:53:09.746Z,98727
2017-11-11T03:55:21.683Z,98703
2017-11-11T03:57:27.812Z,98692
2017-11-11T03:59:35.004Z,98714
2017-11-11T04:01:46.943Z,98717
2017-11-11T04:03:56.546Z,98697
2017-11-11T04:06:01.921Z,98711
2017-11-11T04:08:08.714Z,98704
2017-11-11T04:10:18.239Z,98738
2017-11-11T04:12:29.471Z,98695
2017-11-11T04:14:39.103Z,98728
2017-11-11T04:16:58.568Z,98723
2017-11-11T04:19:18.585Z,98710
2017-11-11T04:21:32.705Z,98682
2017-11-11T04:23:53.693Z,98670
2017-11-11T04:26:02.233Z,98683
2017-11-11T04:28:10.436Z,98700
2017-11-11T04:30:24.923Z,98681
2017-11-11T04:32:31.806Z,98706
2017-11-11T04:34:37.081Z,98687
2017-11-11T04:36:44.006Z,98679
2017-11-11T04:38:54.227Z,98667
2017-11-11T04:41:03.228Z,98681
2017-11-11T04:43:08.588Z,98671
2017-11-11T04:45:16.721Z,98688
2017-11-11T04:47:21.947Z,98668
2017-11-11T04:49:30.637Z,98666
2017-11-11T04:51:36.430Z,98666
2017-11-11T04:53:44.990Z,98690
2017-11-11T04:55:51.357Z,98680
2017-11-11T04:58:02.189Z,98692
2017-11-11T05:00:15.552Z,98673
2017-11-11T05:02:20.940Z,98677
2017-11-11T05:04:29.228Z,98675
2017-11-11T05:06:35.478Z,98708
2017-11-11T05:08:44.791Z,98693
2017-11-11T05:10:50.924Z,98690
2017-11-11T05:12:58.411Z,98701
2017-11-11T05:15:07.829Z,98698
2017-11-11T05:17:14.023Z,98692
2017-11-11T05:19:19.544Z,98688
2017-11-11T05:21:35.774Z,98677
2017-11-11T05:23:44.443Z,98675
2017-11-11T05:25:51.607Z,98677
2017-11-11T05:27:57.060Z,98664
2017-11-11T05:30:08.896Z,98657
2017-11-11T05:32:19.693Z,98650
2017-11-11T05:34:28.947Z,98652
2017-11-11T05:36:35.905Z,98656
2017-11-11T05:38:50.090Z,98654
2017-11-11T05:40:58.990Z,98653
2017-11-11T05:43:10.875Z,98644
2017-11-11T05:45:21.966Z,98645
2017-11-11T05:47:27.394Z,98635
2017-11-11T05:49:33.265Z,98622
2017-11-11T05:51:40.180Z,98629
2017-11-11T05:53:47.476Z,98618
2017-11-11T05:56:00.177Z,98623
2017-11-11T05:58:17.075Z,98609
2017-11-11T06:00:24.927Z,98625
2017-11-11T06:02:30.338Z,98611
2017-11-11T06:04:37.434Z,98620
2017-11-11T06:06:47.684Z,98595
2017-11-11T06:08:56.041Z,98614
2017-11-11T06:11:06.521Z,98614
2017-11-11T06:13:25.785Z,98600
2017-11-11T06:15:34.133Z,98620
2017-11-11T06:17:41.949Z,98619
2017-11-11T06:19:52.220Z,98617
2017-11-11T06:30:29.114Z,98610
2017-11-11T06:34:50.871Z,98619
2017-11-11T06:37:18.072Z,98599
2017-11-11T06:39:29.177Z,98617
2017-11-11T06:41:42.226Z,98619
2017-11-11T06:43:54.708Z,98609
2017-11-11T06:46:09.112Z,98598
2017-11-11T06:48:25.124Z,98611
2017-11-11T06:58:08.550Z,98604
2017-11-11T07:03:18.652Z,98612
2017-11-11T07:05:38.270Z,98587
2017-11-11T07:07:44.869Z,98593
2017-11-11T07:09:53.915Z,98602
2017-11-11T07:12:04.451Z,98582
2017-11-11T07:14:16.341Z,98604
2017-11-11T07:16:23.322Z,98591
2017-11-11T07:18:33.977Z,98584
2017-11-11T07:20:42.850Z,98586
2017-11-11T07:22:50.414Z,98582
2017-11-11T07:25:02.279Z,98592
2017-11-11T07:28:33.198Z,98586
2017-11-11T07:30:39.702Z,98569
2017-11-11T07:32:46.708Z,98577
2017-11-11T07:34:52.892Z,98576
2017-11-11T07:36:58.743Z,98573
2017-11-11T07:39:06.430Z,98563
2017-11-11T07:41:14.721Z,98584
2017-11-11T07:43:22.266Z,98556
2017-11-11T07:45:30.157Z,98581
2017-11-11T07:47:39.460Z,98557
2017-11-11T07:49:49.326Z,98582
2017-11-11T07:51:57.883Z,98567
2017-11-11T07:54:04.298Z,98589
2017-11-11T07:56:10.240Z,98602
2017-11-11T07:58:18.505Z,98587
2017-11-11T08:00:30.193Z,98577
2017-11-11T08:02:36.736Z,98595
2017-11-11T08:04:45.436Z,98589
2017-11-11T08:06:51.235Z,98569
2017-11-11T08:08:57.512Z,98567
2017-11-11T08:11:10.613Z,98567
2017-11-11T08:13:21.377Z,98569
2017-11-11T08:15:29.355Z,98565
2017-11-11T08:17:35.918Z,98579
2017-11-11T08:19:41.425Z,98549
2017-11-11T08:21:50.018Z,98564
2017-11-11T08:23:57.562Z,98544
2017-11-11T08:26:04.715Z,98598
2017-11-11T08:28:13.752Z,98598
2017-11-11T08:30:29.015Z,98538
2017-11-11T08:32:37.069Z,98548
2017-11-11T08:34:46.233Z,98555
2017-11-11T08:39:17.992Z,98519
2017-11-11T08:41:28.114Z,98499
2017-11-11T08:43:34.662Z,98516
2017-11-11T08:45:42.946Z,98505
2017-11-11T08:47:51.601Z,98507
2017-11-11T08:50:00.407Z,98473
2017-11-11T08:52:08.424Z,98534
2017-11-11T08:54:17.338Z,98522
2017-11-11T08:56:23.548Z,98521
2017-11-11T08:58:30.455Z,98506
2017-11-11T09:00:37.867Z,98486
2017-11-11T09:02:49.981Z,98480
2017-11-11T09:04:59.432Z,98512
2017-11-11T09:07:07.496Z,98480
2017-11-11T09:09:15.528Z,98523
2017-11-11T09:11:21.456Z,98496
2017-11-11T09:13:27.366Z,98466
2017-11-11T09:15:36.483Z,98525
2017-11-11T09:17:42.333Z,98453
2017-11-11T09:19:50.176Z,98472
2017-11-11T09:21:59.892Z,98480
2017-11-11T09:24:06.138Z,98485
2017-11-11T09:26:11.809Z,98472
2017-11-11T09:28:17.870Z,98461
2017-11-11T09:30:30.167Z,98529
2017-11-11T09:32:36.202Z,98526
2017-11-11T09:34:41.707Z,98502
2017-11-11T09:36:47.171Z,98479
2017-11-11T09:38:53.151Z,98514
2017-11-11T09:41:01.209Z,98481
2017-11-11T09:43:07.232Z,98496
2017-11-11T09:45:15.265Z,98481
2017-11-11T09:47:22.754Z,98463
2017-11-11T09:49:28.539Z,98511
2017-11-11T09:51:34.753Z,98501
2017-11-11T09:53:40.578Z,98467
2017-11-11T09:55:46.626Z,98466
2017-11-11T09:57:53.538Z,98441
2017-11-11T10:00:03.172Z,98439
2017-11-11T10:02:18.441Z,98457
2017-11-11T10:04:25.798Z,98431
2017-11-11T10:06:36.242Z,98437
2017-11-11T10:08:43.159Z,98456
2017-11-11T10:10:56.078Z,98429
2017-11-11T10:13:03.957Z,98445
2017-11-11T10:15:12.768Z,98421
2017-11-11T10:17:19.608Z,98448
2017-11-11T10:19:25.661Z,98432
2017-11-11T10:21:31.664Z,98439
2017-11-11T10:23:37.386Z,98441
2017-11-11T10:25:48.100Z,98429
2017-11-11T10:27:57.572Z,98433
2017-11-11T10:30:05.074Z,98426
2017-11-11T10:32:12.686Z,98415
2017-11-11T10:34:19.918Z,98429
2017-11-11T10:36:30.713Z,98406
2017-11-11T10:38:37.157Z,98411
2017-11-11T10:40:46.557Z,98421
2017-11-11T10:42:54.352Z,98448
2017-11-11T10:45:12.733Z,98451
2017-11-11T10:47:21.547Z,98426
2017-11-11T10:50:12.818Z,98412
2017-11-11T10:52:22.712Z,98411
2017-11-11T10:54:32.661Z,98392
2017-11-11T10:56:41.657Z,98407
2017-11-11T10:58:52.472Z,98390
2017-11-11T11:00:58.451Z,98364
2017-11-11T11:03:05.052Z,98388
2017-11-11T11:05:13.496Z,98392
2017-11-11T11:07:28.879Z,98409
2017-11-11T11:09:47.132Z,98399
2017-11-11T11:11:55.224Z,98406
2017-11-11T11:14:08.571Z,98379
2017-11-11T11:16:19.625Z,98392
2017-11-11T11:21:06.592Z,98372
2017-11-11T11:23:15.657Z,98384
2017-11-11T11:25:32.447Z,98371
2017-11-11T11:27:42.741Z,98381
2017-11-11T11:30:25.654Z,98342
2017-11-11T11:32:42.676Z,98370
2017-11-11T11:34:51.027Z,98380
2017-11-11T11:42:18.905Z,98333
2017-11-11T11:46:52.450Z,98321
2017-11-11T11:49:06.146Z,98323
2017-11-11T11:51:18.242Z,98322
2017-11-11T11:53:28.474Z,98320
2017-11-11T11:58:25.640Z,98290
2017-11-11T12:00:36.033Z,98309
2017-11-11T12:05:19.384Z,98284
2017-11-11T12:12:44.505Z,98263
2017-11-11T12:16:26.882Z,98271
2017-11-11T12:18:46.547Z,98271
2017-11-11T12:20:53.520Z,98268
2017-11-11T12:23:05.043Z,98287
2017-11-11T12:25:41.139Z,98256
2017-11-11T12:27:49.221Z,98253
2017-11-11T12:29:55.148Z,98254
2017-11-11T12:32:00.840Z,98239
2017-11-11T12:34:07.458Z,98244
2017-11-11T12:36:13.479Z,98239
2017-11-11T12:38:24.680Z,98237
2017-11-11T12:40:36.161Z,98253
2017-11-11T12:42:51.273Z,98243
2017-11-11T12:44:58.164Z,98226
2017-11-11T12:47:05.071Z,98222
2017-11-11T12:49:16.098Z,98226
2017-11-11T12:51:27.174Z,98247
2017-11-11T12:53:33.591Z,98228
2017-11-11T12:55:43.159Z,98226
2017-11-11T12:57:51.981Z,98221
2017-11-11T13:00:00.208Z,98215
2017-11-11T13:02:05.922Z,98230
2017-11-11T13:04:13.587Z,98235
2017-11-11T13:06:20.108Z,98226
2017-11-11T13:08:25.796Z,98216
2017-11-11T13:10:31.684Z,98226
2017-11-11T13:12:37.567Z,98226
2017-11-11T13:14:43.334Z,98236
2017-11-11T13:19:34.765Z,98236
2017-11-11T13:21:41.705Z,98225
2017-11-11T13:23:47.806Z,98244
2017-11-11T13:25:54.500Z,98259
2017-11-11T13:28:02.903Z,98245
2017-11-11T13:30:08.867Z,98230
2017-11-11T13:32:14.879Z,98225
2017-11-11T13:34:20.471Z,98229
2017-11-11T13:36:26.243Z,98220
2017-11-11T13:38:32.180Z,98231
2017-11-11T13:40:38.137Z,98218
2017-11-11T13:42:43.594Z,98204
2017-11-11T13:44:50.930Z,98205
2017-11-11T13:46:59.366Z,98197
2017-11-11T13:49:07.161Z,98195
2017-11-11T13:51:13.578Z,98191
2017-11-11T13:53:19.580Z,98200
2017-11-11T13:55:26.093Z,98194
2017-11-11T13:57:31.981Z,98197
2017-11-11T13:59:39.445Z,98182
2017-11-11T14:01:47.372Z,98178
2017-11-11T14:03:54.185Z,98180
2017-11-11T14:06:05.036Z,98174
2017-11-11T14:08:11.932Z,98178
2017-11-11T14:10:21.163Z,98172
2017-11-11T14:12:26.965Z,98171
2017-11-11T14:14:32.785Z,98162
2017-11-11T14:16:38.829Z,98173
2017-11-11T14:18:44.678Z,98166
2017-11-11T14:20:51.216Z,98167
2017-11-11T14:22:57.447Z,98170
2017-11-11T14:25:06.377Z,98160
2017-11-11T14:27:12.269Z,98159
2017-11-11T14:29:18.200Z,98154
2017-11-11T14:31:38.975Z,98152
2017-11-11T14:33:56.173Z,98137
2017-11-11T14:36:16.580Z,98151
2017-11-11T14:38:28.637Z,98133
2017-11-11T14:40:37.775Z,98137
2017-11-11T14:42:49.154Z,98143
2017-11-11T14:47:12.717Z,98138
2017-11-11T14:49:22.503Z,98126
2017-11-11T14:51:35.192Z,98129
2017-11-11T14:53:42.681Z,98118
2017-11-11T14:55:53.186Z,98112
2017-11-11T14:58:07.553Z,98118
2017-11-11T15:00:20.357Z,98107
2017-11-11T15:02:27.306Z,98114
2017-11-11T15:04:44.384Z,98111
2017-11-11T15:06:56.488Z,98102
2017-11-11T15:09:07.902Z,98100
2017-11-11T15:11:23.260Z,98093
2017-11-11T15:13:36.275Z,98096
2017-11-11T15:15:42.974Z,98092
2017-11-11T15:17:59.545Z,98093
2017-11-11T15:20:13.379Z,98092
2017-11-11T15:22:29.014Z,98092
2017-11-11T15:24:36.296Z,98093
2017-11-11T15:26:56.389Z,98091
2017-11-11T15:29:19.339Z,98079
2017-11-11T15:31:29.680Z,98076
2017-11-11T15:33:42.687Z,98079
2017-11-11T15:36:05.213Z,98087
2017-11-11T15:38:18.601Z,98083
2017-11-11T15:40:24.481Z,98085
2017-11-11T15:42:31.053Z,98075
2017-11-11T15:44:40.903Z,98077
2017-11-11T15:46:50.725Z,98071
2017-11-11T15:48:59.794Z,98069
2017-11-11T15:51:07.889Z,98080
2017-11-11T15:53:17.760Z,98070
2017-11-11T15:55:25.564Z,98074
2017-11-11T15:57:34.185Z,98071
2017-11-11T15:59:40.607Z,98072
2017-11-11T16:01:55.495Z,98079
2017-11-11T16:04:04.719Z,98074
2017-11-11T16:06:14.615Z,98074
2017-11-11T16:08:20.940Z,98073
2017-11-11T16:10:27.455Z,98078
2017-11-11T16:12:33.626Z,98082
2017-11-11T16:14:39.865Z,98080
2017-11-11T16:16:51.201Z,98081
2017-11-11T16:19:11.868Z,98082
2017-11-11T16:21:23.938Z,98085
2017-11-11T16:23:31.382Z,98084
2017-11-11T16:25:39.997Z,98087
2017-11-11T16:27:51.504Z,98082
2017-11-11T16:29:58.453Z,98080
2017-11-11T16:32:07.786Z,98081
2017-11-11T16:34:15.561Z,98077
2017-11-11T16:36:21.094Z,98078
2017-11-11T16:38:26.816Z,98070
2017-11-11T16:40:33.110Z,98073
2017-11-11T16:42:44.156Z,98077
2017-11-11T16:44:50.601Z,98072
2017-11-11T16:46:58.227Z,98067
2017-11-11T16:49:06.889Z,98065
2017-11-11T16:51:13.000Z,98063
2017-11-11T16:53:18.657Z,98065
2017-11-11T16:55:24.536Z,98069
2017-11-11T16:57:30.738Z,98067
2017-11-11T16:59:37.146Z,98070
2017-11-11T17:01:44.086Z,98066
2017-11-11T17:03:51.691Z,98071
2017-11-11T17:05:59.364Z,98070
2017-11-11T17:08:08.374Z,98070
2017-11-11T17:10:17.669Z,98071
2017-11-11T17:12:23.799Z,98076
2017-11-11T17:16:49.715Z,98071
2017-11-11T17:19:07.790Z,98063
2017-11-11T17:21:33.962Z,98067
2017-11-11T17:23:40.015Z,98063
2017-11-11T17:25:47.067Z,98066
2017-11-11T17:28:06.237Z,98063
2017-11-11T17:35:15.754Z,98055
2017-11-11T17:37:23.198Z,98060
2017-11-11T17:39:29.583Z,98063
2017-11-11T17:41:35.594Z,98074
2017-11-11T17:43:41.782Z,98078
2017-11-11T17:45:48.352Z,98073
2017-11-11T17:47:55.726Z,98081
2017-11-11T17:50:01.423Z,98073
2017-11-11T17:52:10.012Z,98079
2017-11-11T17:54:25.299Z,98083
2017-11-11T17:56:34.340Z,98082
2017-11-11T17:58:40.126Z,98081
2017-11-11T18:00:46.269Z,98085
2017-11-11T18:02:53.638Z,98091
2017-11-11T18:05:00.781Z,98083
2017-11-11T18:07:07.686Z,98080
2017-11-11T18:09:13.981Z,98075
2017-11-11T18:11:19.640Z,98076
2017-11-11T18:13:25.667Z,98068
2017-11-11T18:15:31.801Z,98066
2017-11-11T18:17:37.856Z,98057
2017-11-11T18:19:43.973Z,98056
2017-11-11T18:21:51.888Z,98060
2017-11-11T18:23:58.079Z,98065
2017-11-11T18:26:03.981Z,98074
2017-11-11T18:28:09.766Z,98072
2017-11-11T18:30:18.183Z,98073
2017-11-11T18:32:24.309Z,98073
2017-11-11T18:34:30.276Z,98063
2017-11-11T18:36:39.627Z,98061
2017-11-11T18:38:46.469Z,98064
2017-11-11T18:40:52.765Z,98075
2017-11-11T18:43:02.982Z,98065
2017-11-11T18:45:09.848Z,98072
2017-11-11T18:47:15.687Z,98071
2017-11-11T18:49:22.361Z,98078
2017-11-11T18:51:29.241Z,98080
2017-11-11T18:53:36.360Z,98080
2017-11-11T18:55:42.502Z,98078
2017-11-11T18:57:48.987Z,98068
2017-11-11T18:59:56.417Z,98095
2017-11-11T19:02:07.256Z,98093
2017-11-11T19:04:14.404Z,98082
2017-11-11T19:06:20.331Z,98083
2017-11-11T19:08:26.773Z,98087
2017-11-11T19:10:32.546Z,98086
2017-11-11T19:12:38.579Z,98090
2017-11-11T19:14:45.056Z,98088
2017-11-11T19:16:51.912Z,98092
2017-11-11T19:19:02.720Z,98093
2017-11-11T19:21:09.346Z,98094
2017-11-11T19:23:15.265Z,98102
2017-11-11T19:25:20.959Z,98101
2017-11-11T19:27:26.679Z,98105
2017-11-11T19:29:32.598Z,98104
2017-11-11T19:31:38.505Z,98103
2017-11-11T19:33:44.774Z,98111
2017-11-11T19:35:53.277Z,98110
2017-11-11T19:38:01.475Z,98113
2017-11-11T19:40:08.831Z,98118
2017-11-11T19:42:15.082Z,98124
2017-11-11T19:44:20.857Z,98134
2017-11-11T19:46:26.954Z,98148
2017-11-11T19:48:32.964Z,98145
2017-11-11T19:50:38.877Z,98148
2017-11-11T19:52:45.997Z,98155
2017-11-11T19:54:52.169Z,98172
2017-11-11T19:57:02.780Z,98178
2017-11-11T19:59:08.966Z,98170
2017-11-11T20:01:15.608Z,98188
2017-11-11T20:03:21.236Z,98176
2017-11-11T20:05:28.665Z,98189
2017-11-11T20:07:35.779Z,98184
2017-11-11T20:09:44.836Z,98175
2017-11-11T20:11:53.760Z,98167
2017-11-11T20:14:08.593Z,98173
2017-11-11T20:16:16.200Z,98161
2017-11-11T20:18:23.507Z,98162
2017-11-11T20:22:46.246Z,98180
2017-11-11T20:27:49.745Z,98173
2017-11-11T20:30:01.505Z,98187
2017-11-11T20:32:12.342Z,98182
2017-11-11T20:34:19.379Z,98186
2017-11-11T20:36:27.189Z,98189
2017-11-11T20:38:33.974Z,98198
2017-11-11T20:40:43.571Z,98195
2017-11-11T20:42:50.542Z,98190
2017-11-11T20:44:58.051Z,98198
2017-11-11T20:47:04.336Z,98199
2017-11-11T20:49:13.693Z,98200
2017-11-11T20:51:21.066Z,98196
2017-11-11T20:53:30.612Z,98201
2017-11-11T20:55:41.079Z,98203
2017-11-11T20:57:49.164Z,98211
2017-11-11T20:59:56.388Z,98222
2017-11-11T21:02:06.794Z,98218
2017-11-11T21:04:13.646Z,98217
2017-11-11T21:06:19.668Z,98229
2017-11-11T22:34:56.798Z,98283
2017-11-11T22:37:06.323Z,98275
2017-11-11T22:39:15.140Z,98288
2017-11-11T22:41:22.667Z,98295
2017-11-11T22:43:28.461Z,98304
2017-11-11T22:45:34.491Z,98310
2017-11-11T22:47:40.479Z,98311
2017-11-11T22:49:46.497Z,98312
2017-11-11T22:51:52.990Z,98299
2017-11-11T22:54:02.114Z,98315
2017-11-11T22:56:12.895Z,98308
2017-11-11T22:58:19.453Z,98312
2017-11-11T23:00:35.648Z,98315
2017-11-11T23:02:41.900Z,98313
2017-11-11T23:04:48.184Z,98323
2017-11-11T23:06:55.828Z,98327
2017-11-11T23:09:04.939Z,98319
2017-11-11T23:13:21.671Z,98314
2017-11-11T23:15:28.188Z,98312
2017-11-11T23:17:34.496Z,98315
2017-11-11T23:19:41.205Z,98309
2017-11-11T23:21:48.216Z,98315
2017-11-11T23:23:57.240Z,98311
2017-11-11T23:26:06.645Z,98306
2017-11-11T23:28:12.986Z,98319
2017-11-11T23:30:19.656Z,98312
2017-11-11T23:32:25.928Z,98311
2017-11-11T23:34:32.197Z,98311
2017-11-11T23:36:38.084Z,98300
2017-11-11T23:38:44.097Z,98309
2017-11-11T23:40:51.322Z,98312
2017-11-11T23:42:57.900Z,98309
2017-11-11T23:45:04.522Z,98303
2017-11-11T23:47:11.133Z,98317
2017-11-11T23:49:18.434Z,98325
2017-11-11T23:51:24.479Z,98319
2017-11-11T23:53:30.883Z,98328
2017-11-11T23:55:37.462Z,98322
2017-11-11T23:57:43.672Z,98323
2017-11-11T23:59:51.669Z,98325
